Time;durP1;ratioP1;P1;durP2;ratioP2;P2;SDS_P1;SDS_P2;PMS_P1;PMS_P2;Temp;Humidity;BMP_temperature;BMP_pressure;BME280_temperature;BME280_humidity;BME280_pressure;Samples;Min_cycle;Max_cycle;Signal;HPM_P1;HPM_P2
2023/07/29 00:02:01;;;;;;;26.90;19.02;;;19.10;99.90;;;;;;5023152;28;20034;-72
2023/07/29 00:04:26;;;;;;;32.13;19.73;;;19.20;99.90;;;;;;5023139;28;20064;-72
2023/07/29 00:06:52;;;;;;;32.97;20.48;;;19.20;99.90;;;;;;5021723;28;20044;-72
2023/07/29 00:09:17;;;;;;;35.67;20.10;;;19.20;99.90;;;;;;5021852;28;20026;-72
2023/07/29 00:11:43;;;;;;;43.85;20.98;;;19.10;99.90;;;;;;5023014;28;20049;-73
2023/07/29 00:14:09;;;;;;;43.55;20.45;;;19.10;99.90;;;;;;5023422;28;20105;-71
2023/07/29 00:16:34;;;;;;;41.38;20.50;;;19.00;99.90;;;;;;5021913;28;20037;-70
2023/07/29 00:19:02;;;;;;;41.92;20.45;;;19.00;99.90;;;;;;5022948;28;20045;-72
2023/07/29 00:21:27;;;;;;;36.70;20.88;;;19.00;99.90;;;;;;5022699;28;20117;-72
2023/07/29 00:23:53;;;;;;;34.60;20.52;;;19.00;99.90;;;;;;5023154;28;20018;-72
2023/07/29 00:26:19;;;;;;;31.75;19.50;;;19.00;99.90;;;;;;5022676;28;20467;-72
2023/07/29 00:28:45;;;;;;;30.27;18.63;;;19.00;99.90;;;;;;5021640;28;20041;-72
2023/07/29 00:31:10;;;;;;;32.65;20.10;;;18.90;99.90;;;;;;5022981;28;20018;-73
2023/07/29 00:33:36;;;;;;;29.25;19.98;;;18.90;99.90;;;;;;5022598;28;20025;-72
2023/07/29 00:36:02;;;;;;;31.38;20.17;;;18.90;99.90;;;;;;5023232;28;20056;-72
2023/07/29 00:38:28;;;;;;;31.23;19.98;;;18.90;99.90;;;;;;5022279;28;20052;-71
2023/07/29 00:40:54;;;;;;;30.00;19.10;;;18.90;99.90;;;;;;5022796;28;20022;-72
2023/07/29 00:43:19;;;;;;;36.58;20.77;;;18.90;99.90;;;;;;5021377;28;20022;-73
2023/07/29 00:45:45;;;;;;;28.80;18.95;;;18.90;99.90;;;;;;5022402;28;20033;-72
2023/07/29 00:48:11;;;;;;;34.67;20.10;;;18.90;99.90;;;;;;5022122;28;20117;-73
2023/07/29 00:50:37;;;;;;;34.67;19.73;;;18.90;99.90;;;;;;5022859;28;20028;-72
2023/07/29 00:53:02;;;;;;;29.23;19.98;;;18.80;99.90;;;;;;5022686;28;20046;-72
2023/07/29 00:55:28;;;;;;;31.48;21.05;;;18.80;99.90;;;;;;5022251;28;20038;-73
2023/07/29 00:57:54;;;;;;;41.47;20.30;;;18.80;99.90;;;;;;5022524;28;20033;-73
2023/07/29 01:00:21;;;;;;;34.63;23.10;;;18.80;99.90;;;;;;5022188;28;20033;-71
2023/07/29 01:02:47;;;;;;;35.75;20.63;;;18.70;99.90;;;;;;5021064;28;20040;-73
2023/07/29 01:05:15;;;;;;;35.90;20.42;;;18.70;99.90;;;;;;5022612;28;20478;-73
2023/07/29 01:07:48;;;;;;;32.28;20.83;;;18.70;99.90;;;;;;5021909;28;20022;-73
2023/07/29 01:10:58;;;;;;;33.13;20.08;;;18.70;99.90;;;;;;5021711;28;20093;-73
2023/07/29 01:13:35;;;;;;;37.80;21.48;;;18.70;99.90;;;;;;4999510;28;20033;-72
2023/07/29 01:16:19;;;;;;;36.92;21.70;;;18.60;99.90;;;;;;5000352;28;20483;-72
2023/07/29 01:18:48;;;;;;;30.67;20.45;;;18.60;99.90;;;;;;5014910;28;20034;-72
2023/07/29 01:21:16;;;;;;;31.17;20.98;;;18.60;99.90;;;;;;5020646;28;20037;-73
2023/07/29 01:23:42;;;;;;;37.72;23.35;;;18.60;99.90;;;;;;5022523;28;20090;-72
2023/07/29 01:26:07;;;;;;;29.33;20.90;;;18.60;99.90;;;;;;5021085;28;20049;-72
2023/07/29 01:28:33;;;;;;;36.58;23.08;;;18.60;99.90;;;;;;5024588;28;20045;-72
2023/07/29 01:31:10;;;;;;;36.30;21.33;;;18.60;99.90;;;;;;5022801;28;20108;-72
2023/07/29 01:33:42;;;;;;;37.20;21.95;;;18.60;99.90;;;;;;5023352;28;20052;-74
2023/07/29 01:36:16;;;;;;;37.60;23.38;;;18.50;99.90;;;;;;5022141;28;20026;-72
2023/07/29 01:38:43;;;;;;;36.42;22.30;;;18.50;99.90;;;;;;5021334;28;20157;-72
2023/07/29 01:41:10;;;;;;;37.15;21.95;;;18.50;99.90;;;;;;5020785;28;20081;-73
2023/07/29 01:43:43;;;;;;;39.30;22.98;;;18.50;99.90;;;;;;5021620;28;20026;-73
2023/07/29 01:46:13;;;;;;;35.90;23.33;;;18.50;99.90;;;;;;5020774;28;20045;-72
2023/07/29 01:48:39;;;;;;;38.42;22.48;;;18.50;99.90;;;;;;5021890;28;20264;-73
2023/07/29 01:51:06;;;;;;;35.90;23.27;;;18.50;99.90;;;;;;5021492;28;20034;-72
2023/07/29 01:53:31;;;;;;;37.67;23.45;;;18.50;99.90;;;;;;5020785;28;20041;-72
2023/07/29 01:55:57;;;;;;;34.92;22.63;;;18.50;99.90;;;;;;5021875;28;20029;-72
2023/07/29 01:58:23;;;;;;;36.83;23.15;;;18.50;99.90;;;;;;5021856;28;20041;-72
2023/07/29 02:00:49;;;;;;;35.55;22.10;;;18.40;99.90;;;;;;5018468;28;20026;-72
2023/07/29 02:03:15;;;;;;;33.95;22.00;;;18.40;99.90;;;;;;5021423;28;20032;-73
2023/07/29 02:05:43;;;;;;;37.33;22.70;;;18.30;99.90;;;;;;5021980;28;20061;-73
2023/07/29 02:08:09;;;;;;;38.88;21.75;;;18.30;99.90;;;;;;5021274;28;20387;-73
2023/07/29 02:10:34;;;;;;;37.00;22.25;;;18.30;99.90;;;;;;5025648;28;20022;-72
2023/07/29 02:13:00;;;;;;;35.88;22.92;;;18.30;99.90;;;;;;5025833;28;20029;-72
2023/07/29 02:15:26;;;;;;;44.17;24.70;;;18.30;99.90;;;;;;5025583;28;20038;-73
2023/07/29 02:17:51;;;;;;;41.13;24.63;;;18.30;99.90;;;;;;5025102;28;20085;-73
2023/07/29 02:20:17;;;;;;;47.88;26.25;;;18.30;99.90;;;;;;5023731;28;20084;-72
2023/07/29 02:22:43;;;;;;;40.42;25.38;;;18.30;99.90;;;;;;5024406;28;20026;-72
2023/07/29 02:25:09;;;;;;;53.03;25.13;;;18.30;99.90;;;;;;5023996;28;20057;-72
2023/07/29 02:27:35;;;;;;;55.85;26.25;;;18.20;99.90;;;;;;5025109;28;20063;-73
2023/07/29 02:30:02;;;;;;;60.92;26.52;;;18.20;99.90;;;;;;5025223;28;20061;-72
2023/07/29 02:32:27;;;;;;;58.35;27.50;;;18.20;99.90;;;;;;5023209;28;20033;-72
2023/07/29 02:34:53;;;;;;;62.40;27.85;;;18.20;99.90;;;;;;5024962;28;20522;-72
2023/07/29 02:37:18;;;;;;;64.68;27.85;;;18.20;99.90;;;;;;5025147;28;20030;-73
2023/07/29 02:39:44;;;;;;;78.50;29.15;;;18.20;99.90;;;;;;5023593;28;20033;-72
2023/07/29 02:42:10;;;;;;;78.57;28.48;;;18.20;99.90;;;;;;5024062;28;20045;-72
2023/07/29 02:44:36;;;;;;;52.00;26.73;;;18.20;99.90;;;;;;5023347;28;20387;-73
2023/07/29 02:47:01;;;;;;;46.80;26.98;;;18.20;99.90;;;;;;5024626;28;20040;-73
2023/07/29 02:49:27;;;;;;;60.33;30.20;;;18.10;99.90;;;;;;5025005;28;20133;-72
2023/07/29 02:51:53;;;;;;;50.67;28.25;;;18.10;99.90;;;;;;5024497;28;20041;-73
2023/07/29 02:54:18;;;;;;;56.53;30.42;;;18.10;99.90;;;;;;5024739;28;20053;-72
2023/07/29 02:56:44;;;;;;;76.40;30.05;;;18.10;99.90;;;;;;5023085;28;20077;-73
2023/07/29 02:59:10;;;;;;;55.08;28.90;;;18.20;99.90;;;;;;5030631;28;20018;-73
2023/07/29 03:01:35;;;;;;;75.38;29.45;;;18.10;99.90;;;;;;5023177;28;20030;-74
2023/07/29 03:04:01;;;;;;;118.75;30.02;;;18.10;99.90;;;;;;5023435;28;20044;-72
2023/07/29 03:06:26;;;;;;;51.38;28.10;;;18.10;99.90;;;;;;5024226;28;20026;-73
2023/07/29 03:08:52;;;;;;;84.38;29.25;;;18.10;99.90;;;;;;5023279;28;20038;-73
2023/07/29 03:11:18;;;;;;;62.53;28.38;;;18.10;99.90;;;;;;5023152;28;20490;-73
2023/07/29 03:13:43;;;;;;;161.55;29.63;;;18.10;99.90;;;;;;5023818;28;20030;-73
2023/07/29 03:16:11;;;;;;;81.95;28.35;;;18.10;99.90;;;;;;5024476;28;20034;-72
2023/07/29 03:18:37;;;;;;;66.13;28.08;;;18.10;99.90;;;;;;5023752;28;20045;-73
2023/07/29 03:21:03;;;;;;;95.63;26.80;;;18.10;99.90;;;;;;5022889;28;20113;-74
2023/07/29 03:23:30;;;;;;;90.28;24.80;;;18.00;99.90;;;;;;5024282;28;20026;-73
2023/07/29 03:25:58;;;;;;;133.43;26.92;;;18.00;99.90;;;;;;5022923;28;20030;-73
2023/07/29 03:28:28;;;;;;;136.20;25.88;;;18.10;99.90;;;;;;5023495;28;20045;-73
2023/07/29 03:30:55;;;;;;;210.90;26.10;;;18.00;99.90;;;;;;5024033;28;20018;-73
2023/07/29 03:33:20;;;;;;;180.63;22.83;;;18.00;99.90;;;;;;5023443;28;20037;-73
2023/07/29 03:35:47;;;;;;;145.88;20.48;;;18.00;99.90;;;;;;5023710;28;20030;-74
2023/07/29 03:38:13;;;;;;;115.43;19.00;;;17.90;99.90;;;;;;5022888;28;20107;-73
2023/07/29 03:40:39;;;;;;;133.95;19.92;;;17.90;99.90;;;;;;5023475;28;20026;-72
2023/07/29 03:43:04;;;;;;;101.95;19.17;;;17.90;99.90;;;;;;5023639;28;20049;-73
2023/07/29 03:45:31;;;;;;;99.63;18.52;;;17.80;99.90;;;;;;5023983;28;20029;-73
2023/07/29 03:47:56;;;;;;;128.55;18.38;;;17.70;99.90;;;;;;5022891;28;20037;-72
2023/07/29 03:50:22;;;;;;;89.13;18.70;;;17.70;99.90;;;;;;5023367;28;20463;-73
2023/07/29 03:52:47;;;;;;;70.82;18.48;;;17.70;99.90;;;;;;5022226;28;20140;-72
2023/07/29 03:55:13;;;;;;;49.97;19.52;;;17.60;99.90;;;;;;5022089;28;20030;-73
2023/07/29 03:57:39;;;;;;;60.30;23.25;;;17.60;99.90;;;;;;5023670;28;20059;-75
2023/07/29 04:00:05;;;;;;;49.67;23.50;;;17.60;99.90;;;;;;5023793;28;20080;-72
2023/07/29 04:02:31;;;;;;;44.75;22.05;;;17.60;99.90;;;;;;5023303;28;20026;-73
2023/07/29 04:04:56;;;;;;;49.10;24.10;;;17.60;99.90;;;;;;5023430;28;20037;-74
2023/07/29 04:07:22;;;;;;;46.50;24.05;;;17.60;99.90;;;;;;5023449;28;20033;-73
2023/07/29 04:09:48;;;;;;;37.63;20.60;;;17.60;99.90;;;;;;5022806;28;20108;-72
2023/07/29 04:12:15;;;;;;;47.78;24.88;;;17.60;99.90;;;;;;5022820;28;20018;-74
2023/07/29 04:14:40;;;;;;;47.45;25.20;;;17.60;99.90;;;;;;5021809;28;20029;-73
2023/07/29 04:17:06;;;;;;;46.15;24.50;;;17.60;99.90;;;;;;5022959;28;20022;-73
2023/07/29 04:19:32;;;;;;;49.88;25.45;;;17.60;99.90;;;;;;5021973;28;20014;-74
2023/07/29 04:21:57;;;;;;;42.85;23.77;;;17.60;99.90;;;;;;5021142;28;20030;-73
2023/07/29 04:24:23;;;;;;;48.65;25.60;;;17.70;99.90;;;;;;5022591;28;20037;-73
2023/07/29 04:26:49;;;;;;;50.85;25.92;;;17.60;99.90;;;;;;5022835;28;20053;-73
2023/07/29 04:29:15;;;;;;;43.70;23.65;;;17.60;99.90;;;;;;5021879;28;20106;-74
2023/07/29 04:31:40;;;;;;;50.40;25.58;;;17.60;99.90;;;;;;5022765;28;20097;-73
2023/07/29 04:34:06;;;;;;;54.70;26.67;;;17.60;99.90;;;;;;5020962;28;21097;-72
2023/07/29 04:36:32;;;;;;;40.05;23.83;;;17.60;99.90;;;;;;5021114;28;20128;-74
2023/07/29 04:38:58;;;;;;;48.22;25.98;;;17.60;99.90;;;;;;5022195;28;20037;-72
2023/07/29 04:41:23;;;;;;;47.10;25.15;;;17.60;99.90;;;;;;5022678;28;20349;-72
2023/07/29 04:43:49;;;;;;;48.33;25.95;;;17.70;99.90;;;;;;5019872;28;20040;-71
2023/07/29 04:46:15;;;;;;;47.05;24.98;;;17.70;99.90;;;;;;5020354;28;20030;-72
2023/07/29 04:48:41;;;;;;;51.33;26.15;;;17.70;99.90;;;;;;5022631;28;20042;-72
2023/07/29 04:51:06;;;;;;;48.65;25.55;;;17.70;99.90;;;;;;5022577;28;20087;-72
2023/07/29 04:53:32;;;;;;;49.97;26.65;;;17.70;99.90;;;;;;5021024;28;20056;-72
2023/07/29 04:55:58;;;;;;;52.00;26.73;;;17.70;99.90;;;;;;5021911;28;20018;-72
2023/07/29 04:58:23;;;;;;;46.72;25.20;;;17.70;99.90;;;;;;5017236;28;20034;-73
2023/07/29 05:00:49;;;;;;;47.67;26.73;;;17.70;99.90;;;;;;5021373;28;20036;-72
2023/07/29 05:03:15;;;;;;;45.60;24.63;;;17.70;99.90;;;;;;5019501;28;20026;-73
2023/07/29 05:05:40;;;;;;;46.75;25.85;;;17.70;99.90;;;;;;5020974;28;20084;-73
2023/07/29 05:08:06;;;;;;;48.38;25.55;;;17.80;99.90;;;;;;5021947;28;20034;-73
2023/07/29 05:10:32;;;;;;;48.42;26.83;;;17.80;99.90;;;;;;5022095;28;20395;-72
2023/07/29 05:12:57;;;;;;;50.90;26.90;;;17.90;99.90;;;;;;5019545;28;20112;-72
2023/07/29 05:15:23;;;;;;;51.70;26.15;;;17.90;99.90;;;;;;5022031;28;20030;-72
2023/07/29 05:17:48;;;;;;;48.17;26.73;;;17.90;99.90;;;;;;5021046;28;20029;-72
2023/07/29 05:20:14;;;;;;;59.13;28.67;;;17.90;99.90;;;;;;5020857;28;20037;-73
2023/07/29 05:22:40;;;;;;;50.10;26.38;;;18.00;99.90;;;;;;5020112;28;20034;-73
2023/07/29 05:25:06;;;;;;;50.33;25.90;;;18.00;99.90;;;;;;5021537;28;20034;-74
2023/07/29 05:27:31;;;;;;;44.72;25.20;;;18.00;99.90;;;;;;5020445;28;20053;-72
2023/07/29 05:29:57;;;;;;;47.35;24.88;;;18.00;99.90;;;;;;5019122;28;20025;-72
2023/07/29 05:32:22;;;;;;;41.10;24.38;;;18.00;99.90;;;;;;5017671;28;20044;-72
2023/07/29 05:34:48;;;;;;;44.70;25.23;;;18.10;99.90;;;;;;5020694;28;20026;-72
2023/07/29 05:37:14;;;;;;;50.55;25.75;;;18.10;99.90;;;;;;5020189;28;20034;-72
2023/07/29 05:39:39;;;;;;;41.25;24.05;;;18.10;99.90;;;;;;5021368;28;20041;-72
2023/07/29 05:42:06;;;;;;;45.83;25.35;;;18.20;99.90;;;;;;5016514;28;20372;-73
2023/07/29 05:44:31;;;;;;;44.80;24.92;;;18.20;99.90;;;;;;5023244;28;20030;-72
2023/07/29 05:46:57;;;;;;;41.30;24.35;;;18.20;99.90;;;;;;5023037;28;21373;-73
2023/07/29 05:49:23;;;;;;;43.70;24.63;;;18.20;99.90;;;;;;5024582;28;21155;-72
2023/07/29 05:51:50;;;;;;;43.35;24.65;;;18.20;99.90;;;;;;5025616;28;20054;-72
2023/07/29 05:54:17;;;;;;;48.92;24.50;;;18.30;99.90;;;;;;5024795;28;20024;-74
2023/07/29 05:56:43;;;;;;;44.75;24.35;;;18.30;99.90;;;;;;5025593;28;20040;-71
2023/07/29 05:59:08;;;;;;;46.67;25.65;;;18.30;99.90;;;;;;5023802;28;20037;-71
2023/07/29 06:01:34;;;;;;;45.55;25.48;;;18.30;99.90;;;;;;5019426;28;20026;-70
2023/07/29 06:04:00;;;;;;;41.35;23.42;;;18.30;99.90;;;;;;5021818;28;20037;-70
2023/07/29 06:06:26;;;;;;;43.17;23.30;;;18.30;99.90;;;;;;5024755;28;20109;-70
2023/07/29 06:08:52;;;;;;;46.17;24.48;;;18.30;99.90;;;;;;5024576;28;20069;-70
2023/07/29 06:11:17;;;;;;;44.28;23.95;;;18.40;99.90;;;;;;5023951;28;20078;-70
2023/07/29 06:13:43;;;;;;;44.67;24.45;;;18.40;99.90;;;;;;5023972;28;20072;-70
2023/07/29 06:16:08;;;;;;;43.00;23.65;;;18.40;99.90;;;;;;5025006;28;20018;-69
2023/07/29 06:18:34;;;;;;;43.70;24.50;;;18.50;99.90;;;;;;5025249;28;20041;-70
2023/07/29 06:20:59;;;;;;;45.80;25.40;;;18.50;99.90;;;;;;5025391;28;20083;-70
2023/07/29 06:23:25;;;;;;;43.78;25.25;;;18.50;99.90;;;;;;5025034;28;20030;-70
2023/07/29 06:25:50;;;;;;;40.50;23.98;;;18.60;99.90;;;;;;5025262;28;20355;-69
2023/07/29 06:28:16;;;;;;;42.75;23.98;;;18.60;99.90;;;;;;5023803;28;20054;-69
2023/07/29 06:30:42;;;;;;;46.97;24.00;;;18.60;99.90;;;;;;5024536;28;20029;-70
2023/07/29 06:33:07;;;;;;;39.25;23.60;;;18.60;99.90;;;;;;5023675;28;20022;-70
2023/07/29 06:35:33;;;;;;;46.00;24.60;;;18.70;99.90;;;;;;5025413;28;20044;-69
2023/07/29 06:37:58;;;;;;;39.38;22.73;;;18.70;99.90;;;;;;5023301;28;20033;-69
2023/07/29 06:40:24;;;;;;;45.35;25.08;;;18.70;99.90;;;;;;5017450;28;20036;-70
2023/07/29 06:42:50;;;;;;;38.47;22.75;;;18.80;99.90;;;;;;5022804;28;20026;-70
2023/07/29 06:45:16;;;;;;;35.97;22.70;;;18.70;99.90;;;;;;5020656;28;20036;-70
2023/07/29 06:47:41;;;;;;;35.60;21.98;;;18.70;99.90;;;;;;5021739;28;20049;-69
2023/07/29 06:50:07;;;;;;;40.85;22.40;;;18.70;99.90;;;;;;5021681;28;20026;-71
2023/07/29 06:52:33;;;;;;;34.03;21.75;;;18.70;99.90;;;;;;5022686;28;20041;-70
2023/07/29 06:54:58;;;;;;;35.80;21.48;;;18.70;99.90;;;;;;5022738;28;20455;-70
2023/07/29 06:57:24;;;;;;;34.95;21.77;;;18.70;99.90;;;;;;5022165;28;20060;-71
2023/07/29 06:59:50;;;;;;;36.13;21.50;;;18.80;99.90;;;;;;5022366;28;20036;-69
2023/07/29 07:02:15;;;;;;;34.08;20.92;;;18.80;99.90;;;;;;5021972;28;20021;-70
2023/07/29 07:04:41;;;;;;;33.60;21.17;;;18.80;99.90;;;;;;5022529;28;20029;-70
2023/07/29 07:07:06;;;;;;;29.60;19.30;;;18.90;99.90;;;;;;5021864;28;20042;-71
2023/07/29 07:09:32;;;;;;;31.70;19.77;;;19.00;99.90;;;;;;5023360;28;20045;-71
2023/07/29 07:11:57;;;;;;;28.27;18.80;;;19.00;99.90;;;;;;5019111;28;20030;-68
2023/07/29 07:14:23;;;;;;;31.88;18.38;;;19.10;99.90;;;;;;5022716;28;20061;-67
2023/07/29 07:16:49;;;;;;;26.42;16.70;;;19.20;99.90;;;;;;5024017;28;20034;-69
2023/07/29 07:19:14;;;;;;;26.42;16.83;;;19.20;99.90;;;;;;5023781;28;20086;-68
2023/07/29 07:21:40;;;;;;;26.02;15.75;;;19.30;99.90;;;;;;5024430;28;20026;-67
2023/07/29 07:24:05;;;;;;;22.13;14.35;;;19.30;99.90;;;;;;5024647;28;20033;-70
2023/07/29 07:26:31;;;;;;;21.55;13.82;;;19.30;99.90;;;;;;5021699;28;20052;-68
2023/07/29 07:28:57;;;;;;;19.08;13.13;;;19.30;99.90;;;;;;5021552;28;20026;-68
2023/07/29 07:31:22;;;;;;;20.27;12.23;;;19.40;99.90;;;;;;5022343;28;20034;-69
2023/07/29 07:33:48;;;;;;;16.52;11.43;;;19.40;99.90;;;;;;5023418;28;20025;-68
2023/07/29 07:36:13;;;;;;;17.50;10.88;;;19.40;99.90;;;;;;5024059;28;20038;-69
2023/07/29 07:38:39;;;;;;;14.25;9.52;;;19.50;99.90;;;;;;5023854;28;20022;-68
2023/07/29 07:41:05;;;;;;;12.70;9.00;;;19.60;99.90;;;;;;5024052;28;20021;-69
2023/07/29 07:43:31;;;;;;;15.75;9.70;;;19.60;99.90;;;;;;5021611;28;20025;-68
2023/07/29 07:46:01;;;;;;;12.07;6.28;;;19.70;99.90;;;;;;5023033;28;20522;-69
2023/07/29 07:48:28;;;;;;;9.55;6.45;;;19.70;99.90;;;;;;5022749;28;20041;-69
2023/07/29 07:50:53;;;;;;;10.35;5.68;;;19.70;99.90;;;;;;5021188;28;20036;-68
2023/07/29 07:53:19;;;;;;;8.23;5.35;;;19.70;99.90;;;;;;5021207;28;20121;-69
2023/07/29 07:55:45;;;;;;;7.85;4.78;;;19.80;99.90;;;;;;5019544;28;20026;-69
2023/07/29 07:58:11;;;;;;;6.85;4.07;;;19.80;99.90;;;;;;5019207;28;20042;-70
2023/07/29 08:00:37;;;;;;;5.55;4.15;;;19.80;99.90;;;;;;5018397;28;20038;-70
2023/07/29 08:03:03;;;;;;;6.90;3.90;;;19.90;99.90;;;;;;5020894;28;20045;-70
2023/07/29 08:05:29;;;;;;;5.78;3.75;;;19.90;99.90;;;;;;5019600;28;20022;-69
2023/07/29 08:07:54;;;;;;;6.15;3.10;;;20.00;99.90;;;;;;5019412;28;20056;-69
2023/07/29 08:10:20;;;;;;;5.18;3.55;;;20.10;99.90;;;;;;5020479;28;20022;-70
2023/07/29 08:12:46;;;;;;;5.43;2.17;;;20.10;99.90;;;;;;5021334;28;20045;-70
2023/07/29 08:15:11;;;;;;;3.80;2.50;;;20.10;99.90;;;;;;5020127;28;20030;-71
2023/07/29 08:17:37;;;;;;;4.55;2.63;;;20.10;99.90;;;;;;5023133;28;20062;-72
2023/07/29 08:20:03;;;;;;;3.67;2.20;;;20.10;99.90;;;;;;5022037;28;20034;-72
2023/07/29 08:22:28;;;;;;;5.00;2.25;;;20.10;99.90;;;;;;5020615;28;20033;-71
2023/07/29 08:24:54;;;;;;;3.65;2.33;;;20.20;99.90;;;;;;5020407;28;20033;-71
2023/07/29 08:27:19;;;;;;;4.38;2.35;;;20.20;99.90;;;;;;5022942;28;20050;-70
2023/07/29 08:29:45;;;;;;;3.33;2.20;;;20.20;99.90;;;;;;5022051;28;20072;-70
2023/07/29 08:32:10;;;;;;;6.75;2.40;;;20.30;99.90;;;;;;5022762;28;20045;-75
2023/07/29 08:34:36;;;;;;;3.28;2.20;;;20.30;99.90;;;;;;5021783;28;20038;-71
2023/07/29 08:37:02;;;;;;;2.83;2.00;;;20.30;99.90;;;;;;5022695;28;20033;-72
2023/07/29 08:39:28;;;;;;;3.42;2.00;;;20.30;99.90;;;;;;5022168;28;20061;-71
2023/07/29 08:42:11;;;;;;;3.90;2.05;;;20.30;99.90;;;;;;5022625;28;20112;-71
2023/07/29 08:44:43;;;;;;;3.25;1.90;;;20.40;99.90;;;;;;5020724;28;20049;-73
2023/07/29 08:47:09;;;;;;;3.58;1.60;;;20.50;99.90;;;;;;5021011;28;20058;-70
2023/07/29 08:49:37;;;;;;;5.68;1.85;;;20.60;99.90;;;;;;5019449;28;20065;-70
2023/07/29 08:52:04;;;;;;;14.07;1.70;;;20.70;99.90;;;;;;5021713;28;20053;-71
2023/07/29 08:54:30;;;;;;;2.58;1.80;;;20.80;99.90;;;;;;5021057;28;20391;-70
2023/07/29 08:56:56;;;;;;;4.70;2.10;;;20.90;99.90;;;;;;5020977;28;20030;-69
2023/07/29 08:59:21;;;;;;;4.82;1.90;;;20.90;99.90;;;;;;5021709;28;20046;-73
2023/07/29 09:01:48;;;;;;;4.40;2.13;;;20.90;99.90;;;;;;5021177;28;20038;-72
2023/07/29 09:04:13;;;;;;;3.10;1.55;;;20.80;99.90;;;;;;5021593;28;20036;-70
2023/07/29 09:06:40;;;;;;;5.28;1.95;;;20.80;99.90;;;;;;5020968;28;20014;-70
2023/07/29 09:09:07;;;;;;;3.47;1.73;;;20.80;99.90;;;;;;5021459;28;20026;-73
2023/07/29 09:11:33;;;;;;;4.50;1.98;;;20.80;99.90;;;;;;5020883;28;20045;-70
2023/07/29 09:13:59;;;;;;;5.03;1.95;;;20.90;99.90;;;;;;5021808;28;20061;-72
2023/07/29 09:16:25;;;;;;;3.25;1.90;;;20.90;99.90;;;;;;5022078;28;20060;-71
2023/07/29 09:18:51;;;;;;;4.45;2.38;;;21.00;99.90;;;;;;5021605;28;20096;-72
2023/07/29 09:21:22;;;;;;;4.68;2.00;;;21.10;99.90;;;;;;5020615;28;20022;-73
2023/07/29 09:23:49;;;;;;;4.63;2.10;;;21.10;99.90;;;;;;5020305;28;20030;-72
2023/07/29 09:26:23;;;;;;;4.00;2.05;;;21.10;99.90;;;;;;5018676;28;20037;-74
2023/07/29 09:28:55;;;;;;;3.75;2.00;;;21.10;99.90;;;;;;5017339;28;20037;-73
2023/07/29 09:31:26;;;;;;;2.92;1.73;;;21.10;99.90;;;;;;5011529;28;20034;-70
2023/07/29 09:33:58;;;;;;;7.57;1.88;;;21.00;99.90;;;;;;5019418;28;20514;-70
2023/07/29 09:36:24;;;;;;;4.07;2.17;;;21.00;99.90;;;;;;5019901;28;20057;-73
2023/07/29 09:38:55;;;;;;;2.45;1.85;;;21.00;99.90;;;;;;5017541;28;20026;-73
2023/07/29 09:41:30;;;;;;;3.05;1.60;;;21.10;99.90;;;;;;5019343;28;20029;-72
2023/07/29 09:43:58;;;;;;;3.78;1.65;;;21.10;99.90;;;;;;5019096;28;20041;-72
2023/07/29 09:46:32;;;;;;;4.45;2.05;;;21.20;99.90;;;;;;5019322;28;20034;-70
2023/07/29 09:48:58;;;;;;;3.53;2.20;;;21.40;99.90;;;;;;5019350;28;20096;-71
2023/07/29 09:51:24;;;;;;;4.60;2.60;;;21.50;99.90;;;;;;5021319;28;20053;-69
2023/07/29 09:53:51;;;;;;;3.95;2.47;;;21.60;99.90;;;;;;5020921;28;20431;-72
2023/07/29 09:56:18;;;;;;;4.60;2.40;;;21.60;99.90;;;;;;5019383;28;20467;-70
2023/07/29 09:58:45;;;;;;;4.55;2.40;;;21.60;99.90;;;;;;5020983;28;20025;-70
2023/07/29 10:01:12;;;;;;;3.78;2.25;;;21.60;99.90;;;;;;5019183;28;20029;-72
2023/07/29 10:03:38;;;;;;;4.32;2.65;;;21.70;99.90;;;;;;5019843;28;20041;-72
2023/07/29 10:06:05;;;;;;;7.95;3.15;;;21.80;99.90;;;;;;5020128;28;20054;-71
2023/07/29 10:08:40;;;;;;;3.97;2.75;;;21.80;99.90;;;;;;5017896;28;20042;-71
2023/07/29 10:11:10;;;;;;;5.15;2.88;;;21.80;99.90;;;;;;5018804;28;20562;-71
2023/07/29 10:13:37;;;;;;;3.95;2.67;;;21.80;99.90;;;;;;5014674;28;20044;-72
2023/07/29 10:16:04;;;;;;;4.03;3.28;;;21.80;99.90;;;;;;5018532;28;20037;-71
2023/07/29 10:18:31;;;;;;;5.47;3.13;;;21.70;99.90;;;;;;5018727;28;20049;-70
2023/07/29 10:20:58;;;;;;;6.32;3.05;;;21.60;99.90;;;;;;5017342;28;20041;-69
2023/07/29 10:23:32;;;;;;;6.75;3.63;;;21.60;99.90;;;;;;5018722;28;20030;-69
2023/07/29 10:26:05;;;;;;;6.05;2.90;;;21.60;99.90;;;;;;5019340;28;20101;-71
2023/07/29 10:28:32;;;;;;;5.38;2.90;;;21.70;99.90;;;;;;5019238;28;20101;-68
2023/07/29 10:30:58;;;;;;;6.53;3.17;;;21.80;99.90;;;;;;5023003;28;20022;-70
2023/07/29 10:33:25;;;;;;;5.95;3.05;;;21.70;99.90;;;;;;5024117;28;20037;-70
2023/07/29 10:35:52;;;;;;;6.35;2.90;;;21.70;99.90;;;;;;5023512;28;20017;-71
2023/07/29 10:38:21;;;;;;;3.72;3.05;;;21.80;99.90;;;;;;5022690;28;20430;-70
2023/07/29 10:40:51;;;;;;;5.38;3.30;;;22.00;99.90;;;;;;5022662;28;20021;-71
2023/07/29 10:43:36;;;;;;;8.73;3.55;;;21.90;99.90;;;;;;5023743;28;20018;-69
2023/07/29 10:46:18;;;;;;;4.22;3.13;;;21.90;99.90;;;;;;5021304;28;20038;-70
2023/07/29 10:48:51;;;;;;;7.10;3.20;;;22.00;99.90;;;;;;5022988;28;20038;-68
2023/07/29 10:51:26;;;;;;;6.57;3.63;;;22.00;99.90;;;;;;4985409;28;1097236;-71
2023/07/29 10:53:57;;;;;;;3.95;3.00;;;22.10;99.90;;;;;;5024478;28;20030;-70
2023/07/29 10:56:30;;;;;;;3.92;2.95;;;22.30;99.90;;;;;;5024770;28;20026;-74
2023/07/29 10:58:57;;;;;;;3.35;2.30;;;22.50;99.90;;;;;;5024496;28;20072;-70
2023/07/29 11:01:28;;;;;;;5.55;2.55;;;22.60;99.90;;;;;;5023073;28;20024;-73
2023/07/29 11:04:19;;;;;;;3.13;2.40;;;22.70;99.90;;;;;;5023003;28;20034;-69
2023/07/29 11:07:03;;;;;;;3.50;2.47;;;22.70;99.90;;;;;;5024183;28;20034;-78
2023/07/29 11:09:51;;;;;;;5.70;2.47;;;22.70;99.90;;;;;;5024557;28;20034;-71
2023/07/29 11:12:35;;;;;;;3.78;2.50;;;22.80;99.90;;;;;;5024300;28;20033;-72
2023/07/29 11:15:15;;;;;;;4.03;2.30;;;22.80;99.90;;;;;;5023814;28;20029;-68
2023/07/29 11:18:00;;;;;;;3.30;2.38;;;22.70;99.90;;;;;;5023242;28;20018;-70
2023/07/29 11:20:27;;;;;;;4.15;2.60;;;22.70;99.90;;;;;;5023918;28;20058;-71
2023/07/29 11:22:55;;;;;;;4.97;2.35;;;22.80;99.90;;;;;;5020649;28;20403;-71
2023/07/29 11:25:21;;;;;;;4.05;2.33;;;22.80;99.90;;;;;;5023777;28;20032;-69
2023/07/29 11:27:47;;;;;;;3.58;2.67;;;22.80;99.90;;;;;;5022332;28;21099;-70
2023/07/29 11:30:14;;;;;;;3.38;2.70;;;22.70;99.90;;;;;;5022991;28;20048;-72
2023/07/29 11:32:42;;;;;;;7.15;3.30;;;22.70;99.90;;;;;;5023222;28;20022;-69
2023/07/29 11:35:10;;;;;;;3.75;2.90;;;22.60;99.90;;;;;;5022459;28;20075;-71
2023/07/29 11:37:37;;;;;;;4.72;2.70;;;22.60;99.90;;;;;;5022839;28;20028;-71
2023/07/29 11:40:04;;;;;;;3.63;2.45;;;22.70;99.90;;;;;;5023565;28;20037;-70
2023/07/29 11:42:32;;;;;;;3.58;2.60;;;22.70;99.90;;;;;;5021589;28;20018;-71
2023/07/29 11:44:58;;;;;;;4.22;2.60;;;22.70;99.90;;;;;;5022581;28;20077;-73
2023/07/29 11:47:25;;;;;;;5.88;2.70;;;22.80;99.90;;;;;;5022217;28;20042;-72
2023/07/29 11:49:51;;;;;;;3.90;2.60;;;22.70;99.90;;;;;;5023004;28;21027;-71
2023/07/29 11:52:19;;;;;;;3.17;1.92;;;22.60;99.90;;;;;;5022252;28;20072;-70
2023/07/29 11:54:46;;;;;;;5.00;2.25;;;22.50;99.90;;;;;;5023694;28;21332;-69
2023/07/29 11:57:13;;;;;;;4.82;2.50;;;22.50;99.90;;;;;;5022033;28;20021;-71
2023/07/29 11:59:39;;;;;;;5.28;2.35;;;22.60;99.90;;;;;;5022547;28;20539;-70
2023/07/29 12:02:12;;;;;;;4.20;2.40;;;22.70;99.90;;;;;;5023345;28;20026;-68
2023/07/29 12:04:39;;;;;;;3.45;2.65;;;22.60;99.90;;;;;;5019470;28;20041;-73
2023/07/29 12:07:05;;;;;;;3.72;2.40;;;22.60;99.90;;;;;;5023078;28;20096;-71
2023/07/29 12:09:31;;;;;;;5.32;2.47;;;22.60;99.90;;;;;;5023479;28;20527;-69
2023/07/29 12:11:58;;;;;;;3.35;2.60;;;22.60;99.90;;;;;;5023784;28;20022;-72
2023/07/29 12:14:27;;;;;;;6.43;2.50;;;22.70;99.90;;;;;;5022730;28;20033;-70
2023/07/29 12:16:53;;;;;;;4.50;2.20;;;23.00;99.90;;;;;;5023340;28;20038;-71
2023/07/29 12:19:19;;;;;;;4.30;2.20;;;23.30;99.90;;;;;;5023193;28;20033;-71
2023/07/29 12:21:45;;;;;;;4.28;2.53;;;23.40;99.90;;;;;;5022952;28;20030;-73
2023/07/29 12:24:14;;;;;;;4.47;2.30;;;23.20;99.90;;;;;;5022090;28;20026;-73
2023/07/29 12:26:42;;;;;;;4.70;2.40;;;23.00;99.90;;;;;;5023282;28;20029;-70
2023/07/29 12:29:16;;;;;;;5.25;2.20;;;22.80;99.90;;;;;;5022662;28;20050;-71
2023/07/29 12:31:42;;;;;;;5.22;2.30;;;22.80;99.90;;;;;;5021967;28;20034;-70
2023/07/29 12:34:08;;;;;;;3.05;2.17;;;23.00;99.90;;;;;;5020154;28;20061;-71